Time;durP1;ratioP1;P1;durP2;ratioP2;P2;SDS_P1;SDS_P2;PMS_P1;PMS_P2;Temp;Humidity;BMP_temperature;BMP_pressure;BME280_temperature;BME280_humidity;BME280_pressure;Samples;Min_cycle;Max_cycle;Signal;HPM_P1;HPM_P2
2020/12/27 00:00:11;;;;;;;12.87;7.33;;;;;;;;;;4372866;32;20316;-60
2020/12/27 00:02:37;;;;;;;18.57;8.80;;;;;;;;;;4372553;32;20265;-61
2020/12/27 00:05:11;;;;;;;19.70;10.07;;;;;;;;;;4372891;32;20591;-60
2020/12/27 00:07:37;;;;;;;14.67;8.33;;;;;;;;;;4358896;32;20653;-60
2020/12/27 00:10:04;;;;;;;22.87;12.23;;;;;;;;;;4373009;32;20210;-60
2020/12/27 00:12:30;;;;;;;26.30;12.63;;;;;;;;;;4372529;32;20228;-60
2020/12/27 00:14:55;;;;;;;18.60;10.73;;;;;;;;;;4372688;32;20300;-61
2020/12/27 00:17:20;;;;;;;16.43;10.43;;;;;;;;;;4372321;32;20261;-60
2020/12/27 00:19:46;;;;;;;18.83;10.93;;;;;;;;;;4372784;32;20313;-60
2020/12/27 00:22:12;;;;;;;20.30;11.83;;;;;;;;;;4372437;32;20397;-60
2020/12/27 00:24:37;;;;;;;21.07;10.93;;;;;;;;;;4372778;32;20251;-60
2020/12/27 00:27:03;;;;;;;28.73;16.03;;;;;;;;;;4372221;32;20643;-59
2020/12/27 00:29:29;;;;;;;18.70;11.23;;;;;;;;;;4372097;32;20230;-59
2020/12/27 00:31:55;;;;;;;19.37;10.33;;;;;;;;;;4372548;32;20364;-59
2020/12/27 00:34:21;;;;;;;13.13;9.27;;;;;;;;;;4372502;32;20213;-59
2020/12/27 00:36:48;;;;;;;13.40;7.27;;;;;;;;;;4358200;32;20391;-57
2020/12/27 00:39:14;;;;;;;9.80;6.47;;;;;;;;;;4358669;32;20304;-56
2020/12/27 00:41:40;;;;;;;14.70;7.03;;;;;;;;;;4358704;32;20320;-58
2020/12/27 00:44:05;;;;;;;11.87;5.97;;;;;;;;;;4372269;32;20233;-57
2020/12/27 00:46:31;;;;;;;16.17;6.77;;;;;;;;;;4358855;32;20545;-58
2020/12/27 00:48:57;;;;;;;11.23;7.57;;;;;;;;;;4372325;32;20319;-56
2020/12/27 00:51:27;;;;;;;11.17;7.30;;;;;;;;;;4372338;32;20327;-55
2020/12/27 00:53:53;;;;;;;13.30;9.07;;;;;;;;;;4358576;32;20268;-57
2020/12/27 00:56:19;;;;;;;26.23;13.87;;;;;;;;;;4372051;32;20298;-57
2020/12/27 00:58:45;;;;;;;19.90;12.70;;;;;;;;;;4372164;32;20268;-56
2020/12/27 01:01:12;;;;;;;20.83;13.07;;;;;;;;;;4372093;32;20285;-57
2020/12/27 01:03:39;;;;;;;18.47;12.30;;;;;;;;;;4372172;32;20222;-57
2020/12/27 01:06:05;;;;;;;32.40;17.73;;;;;;;;;;4372142;32;20194;-56
2020/12/27 01:08:30;;;;;;;33.83;21.80;;;;;;;;;;4372195;32;20509;-57
2020/12/27 01:10:59;;;;;;;40.23;23.13;;;;;;;;;;4358389;32;20474;-57
2020/12/27 01:13:26;;;;;;;34.47;21.90;;;;;;;;;;4371826;32;20232;-57
2020/12/27 01:15:51;;;;;;;31.23;19.50;;;;;;;;;;4371866;32;20269;-57
2020/12/27 01:18:17;;;;;;;20.03;13.33;;;;;;;;;;4371703;32;20619;-57
2020/12/27 01:20:42;;;;;;;22.00;13.67;;;;;;;;;;4371948;32;20357;-57
2020/12/27 01:23:08;;;;;;;25.40;15.63;;;;;;;;;;4372363;32;20375;-57
2020/12/27 01:25:34;;;;;;;15.67;9.87;;;;;;;;;;4372227;32;20315;-57
2020/12/27 01:27:59;;;;;;;14.27;9.30;;;;;;;;;;4355834;33;20305;-57
2020/12/27 01:30:25;;;;;;;19.30;10.97;;;;;;;;;;4356009;33;20230;-57
2020/12/27 01:32:50;;;;;;;25.87;11.30;;;;;;;;;;4356998;32;20253;-57
2020/12/27 01:35:16;;;;;;;23.60;11.70;;;;;;;;;;4357070;32;20356;-57
2020/12/27 01:37:42;;;;;;;16.90;13.13;;;;;;;;;;4356841;32;20206;-57
2020/12/27 01:40:08;;;;;;;15.67;9.27;;;;;;;;;;4355983;33;20257;-57
2020/12/27 01:42:33;;;;;;;12.17;9.33;;;;;;;;;;4356850;32;20620;-57
2020/12/27 01:44:59;;;;;;;12.70;8.37;;;;;;;;;;4357134;32;20248;-57
2020/12/27 01:47:32;;;;;;;12.57;8.80;;;;;;;;;;4357314;32;20222;-56
2020/12/27 01:49:58;;;;;;;14.33;7.53;;;;;;;;;;4359776;32;20237;-57
2020/12/27 01:52:24;;;;;;;12.87;7.60;;;;;;;;;;4359789;32;20194;-57
2020/12/27 01:54:50;;;;;;;15.23;8.53;;;;;;;;;;4359676;32;20716;-56
2020/12/27 01:57:19;;;;;;;10.03;7.63;;;;;;;;;;4359670;32;20202;-57
2020/12/27 01:59:45;;;;;;;10.27;7.27;;;;;;;;;;4359697;32;20206;-57
2020/12/27 02:02:13;;;;;;;11.30;7.80;;;;;;;;;;4359429;32;20293;-56
2020/12/27 02:04:40;;;;;;;11.90;7.10;;;;;;;;;;4359509;32;20305;-57
2020/12/27 02:07:07;;;;;;;13.23;7.63;;;;;;;;;;4370683;32;20268;-56
2020/12/27 02:09:35;;;;;;;13.67;7.83;;;;;;;;;;4358318;32;20457;-56
2020/12/27 02:12:08;;;;;;;9.70;6.43;;;;;;;;;;4359435;32;20289;-56
2020/12/27 02:14:35;;;;;;;9.20;5.40;;;;;;;;;;4359704;32;20688;-56
2020/12/27 02:17:05;;;;;;;9.13;5.83;;;;;;;;;;4359361;32;20347;-56
2020/12/27 02:19:31;;;;;;;13.23;7.20;;;;;;;;;;4358291;32;20230;-57
2020/12/27 02:21:57;;;;;;;9.43;6.23;;;;;;;;;;4359365;32;20317;-57
2020/12/27 02:24:23;;;;;;;9.60;5.43;;;;;;;;;;4359492;32;20249;-57
2020/12/27 02:26:55;;;;;;;11.37;5.13;;;;;;;;;;4359300;32;20796;-58
2020/12/27 02:29:21;;;;;;;7.53;5.47;;;;;;;;;;4357707;32;20281;-57
2020/12/27 02:31:46;;;;;;;9.87;6.20;;;;;;;;;;4359214;32;20289;-57
2020/12/27 02:34:12;;;;;;;10.53;6.90;;;;;;;;;;4357861;32;20777;-57
2020/12/27 02:36:37;;;;;;;13.67;6.67;;;;;;;;;;4359018;32;20278;-58
2020/12/27 02:39:13;;;;;;;7.63;5.97;;;;;;;;;;4357877;32;20321;-56
2020/12/27 02:41:39;;;;;;;7.73;5.97;;;;;;;;;;4358824;32;20186;-57
2020/12/27 02:44:06;;;;;;;7.60;5.30;;;;;;;;;;4358959;32;20293;-57
2020/12/27 02:46:32;;;;;;;9.30;6.30;;;;;;;;;;4359004;32;20218;-57
2020/12/27 02:48:58;;;;;;;11.53;6.67;;;;;;;;;;4359036;32;20248;-57
2020/12/27 02:51:25;;;;;;;13.73;7.03;;;;;;;;;;4359203;32;20265;-57
2020/12/27 02:53:51;;;;;;;11.03;7.17;;;;;;;;;;4357498;32;20589;-57
2020/12/27 02:56:22;;;;;;;10.67;5.87;;;;;;;;;;4358751;32;20695;-57
2020/12/27 02:58:50;;;;;;;10.10;5.90;;;;;;;;;;4358102;32;20230;-57
2020/12/27 03:01:16;;;;;;;11.93;8.53;;;;;;;;;;4357433;32;20234;-56
2020/12/27 03:03:42;;;;;;;8.60;5.60;;;;;;;;;;4358480;32;20252;-56
2020/12/27 03:06:07;;;;;;;7.20;4.40;;;;;;;;;;4357296;32;20317;-57
2020/12/27 03:08:33;;;;;;;9.43;5.17;;;;;;;;;;4358687;32;20195;-57
2020/12/27 03:10:58;;;;;;;11.20;6.00;;;;;;;;;;4357568;32;20711;-57
2020/12/27 03:13:24;;;;;;;10.93;5.50;;;;;;;;;;4358337;32;20225;-57
2020/12/27 03:15:51;;;;;;;7.33;5.67;;;;;;;;;;4357147;32;20305;-58
2020/12/27 03:18:18;;;;;;;10.53;6.23;;;;;;;;;;4358180;32;20648;-57
2020/12/27 03:20:43;;;;;;;11.50;6.93;;;;;;;;;;4358446;32;20568;-55
2020/12/27 03:23:09;;;;;;;14.10;7.53;;;;;;;;;;4358309;32;20211;-56
2020/12/27 03:25:35;;;;;;;13.03;7.90;;;;;;;;;;4357183;32;20302;-56
2020/12/27 03:28:01;;;;;;;16.00;10.33;;;;;;;;;;4363981;32;20758;-56
2020/12/27 03:30:26;;;;;;;11.40;8.13;;;;;;;;;;4373490;32;20820;-57
2020/12/27 03:32:52;;;;;;;10.50;6.33;;;;;;;;;;4372979;32;20258;-57
2020/12/27 03:35:17;;;;;;;11.57;6.43;;;;;;;;;;4373186;32;20249;-57
2020/12/27 03:37:43;;;;;;;10.07;6.57;;;;;;;;;;4373011;32;20673;-58
2020/12/27 03:40:09;;;;;;;11.80;7.63;;;;;;;;;;4373159;32;20248;-57
2020/12/27 03:42:35;;;;;;;8.87;5.03;;;;;;;;;;4372859;32;20765;-56
2020/12/27 03:45:01;;;;;;;8.43;5.50;;;;;;;;;;4359389;32;20273;-56
2020/12/27 03:47:27;;;;;;;9.90;6.27;;;;;;;;;;4372846;32;20293;-56
2020/12/27 03:49:52;;;;;;;8.70;6.17;;;;;;;;;;4372771;32;20222;-56
2020/12/27 03:52:18;;;;;;;8.47;5.40;;;;;;;;;;4358913;32;20276;-56
2020/12/27 03:54:43;;;;;;;11.10;5.80;;;;;;;;;;4359181;32;20711;-57
2020/12/27 03:57:09;;;;;;;11.03;7.40;;;;;;;;;;4373195;32;20362;-56
2020/12/27 03:59:34;;;;;;;11.37;6.83;;;;;;;;;;4372754;32;20340;-57
2020/12/27 04:02:00;;;;;;;9.40;5.60;;;;;;;;;;4372638;32;20308;-57
2020/12/27 04:04:26;;;;;;;8.47;4.47;;;;;;;;;;4372480;32;20733;-57
2020/12/27 04:06:51;;;;;;;5.63;4.37;;;;;;;;;;4359117;32;20824;-57
2020/12/27 04:09:17;;;;;;;6.43;5.10;;;;;;;;;;4372558;32;20424;-57
2020/12/27 04:11:43;;;;;;;13.53;4.93;;;;;;;;;;4371945;32;20307;-56
2020/12/27 04:14:09;;;;;;;5.33;4.30;;;;;;;;;;4372209;32;20230;-57
2020/12/27 04:16:34;;;;;;;8.40;4.70;;;;;;;;;;4372301;32;20285;-57
2020/12/27 04:19:00;;;;;;;5.73;4.27;;;;;;;;;;4372214;32;20619;-56
2020/12/27 04:21:25;;;;;;;7.93;5.33;;;;;;;;;;4372696;32;20735;-57
2020/12/27 04:23:51;;;;;;;11.07;5.43;;;;;;;;;;4372354;32;20218;-56
2020/12/27 04:26:17;;;;;;;6.97;5.33;;;;;;;;;;4372651;32;20311;-57
2020/12/27 04:28:43;;;;;;;8.80;5.50;;;;;;;;;;4372016;32;20234;-56
2020/12/27 04:31:13;;;;;;;9.57;5.47;;;;;;;;;;4372299;32;20704;-56
2020/12/27 04:33:39;;;;;;;11.07;5.47;;;;;;;;;;4372355;32;20735;-56
2020/12/27 04:36:05;;;;;;;9.30;5.57;;;;;;;;;;4372070;32;20285;-56
2020/12/27 04:38:31;;;;;;;8.87;5.60;;;;;;;;;;4372048;32;20508;-56
2020/12/27 04:40:57;;;;;;;10.40;5.03;;;;;;;;;;4372400;32;20281;-56
2020/12/27 04:43:23;;;;;;;7.57;4.70;;;;;;;;;;4372097;32;20232;-56
2020/12/27 04:45:54;;;;;;;8.73;5.80;;;;;;;;;;4358467;32;20742;-56
2020/12/27 04:48:20;;;;;;;8.17;5.70;;;;;;;;;;4358294;32;20245;-56
2020/12/27 04:50:46;;;;;;;26.27;16.17;;;;;;;;;;4372299;32;20226;-57
2020/12/27 04:53:12;;;;;;;32.37;18.70;;;;;;;;;;4371989;32;20191;-57
2020/12/27 04:55:39;;;;;;;22.57;11.20;;;;;;;;;;4371834;32;20663;-57
2020/12/27 04:58:08;;;;;;;11.77;7.23;;;;;;;;;;4345899;32;20214;-56
2020/12/27 05:00:33;;;;;;;12.37;6.20;;;;;;;;;;4372371;32;20283;-57
2020/12/27 05:03:00;;;;;;;11.53;7.00;;;;;;;;;;4371954;32;20273;-57
2020/12/27 05:05:26;;;;;;;15.77;7.67;;;;;;;;;;4372273;32;20626;-56
2020/12/27 05:07:52;;;;;;;15.70;8.47;;;;;;;;;;4372027;32;20611;-56
2020/12/27 05:10:18;;;;;;;23.87;10.57;;;;;;;;;;4346281;32;20222;-56
2020/12/27 05:12:44;;;;;;;14.53;9.23;;;;;;;;;;4372064;32;20291;-55
2020/12/27 05:15:09;;;;;;;18.50;10.67;;;;;;;;;;4371916;32;20221;-56
2020/12/27 05:17:35;;;;;;;16.70;10.07;;;;;;;;;;4357959;32;20354;-56
2020/12/27 05:20:14;;;;;;;15.57;9.80;;;;;;;;;;4372242;32;20260;-56
2020/12/27 05:22:40;;;;;;;13.30;8.93;;;;;;;;;;4359999;32;20287;-57
2020/12/27 05:25:07;;;;;;;12.53;6.57;;;;;;;;;;4374915;32;20239;-56
2020/12/27 05:27:39;;;;;;;13.50;8.57;;;;;;;;;;4373427;32;20242;-57
2020/12/27 05:30:05;;;;;;;13.63;9.17;;;;;;;;;;4374577;32;20322;-56
2020/12/27 05:32:31;;;;;;;16.80;8.80;;;;;;;;;;4374862;32;20218;-56
2020/12/27 05:34:58;;;;;;;19.17;10.57;;;;;;;;;;4361437;32;20297;-56
2020/12/27 05:37:29;;;;;;;22.03;13.70;;;;;;;;;;4374804;32;20225;-57
2020/12/27 05:39:54;;;;;;;22.00;13.27;;;;;;;;;;4349147;32;20298;-56
2020/12/27 05:42:27;;;;;;;20.07;12.30;;;;;;;;;;4361036;32;20238;-56
2020/12/27 05:44:53;;;;;;;20.83;11.83;;;;;;;;;;4374716;32;20249;-56
2020/12/27 05:47:20;;;;;;;20.70;11.83;;;;;;;;;;4374423;32;20233;-57
2020/12/27 05:49:45;;;;;;;19.87;11.43;;;;;;;;;;4360915;32;20633;-56
2020/12/27 05:52:16;;;;;;;34.47;18.03;;;;;;;;;;4374420;32;20295;-56
2020/12/27 05:54:47;;;;;;;80.13;31.83;;;;;;;;;;4374379;32;20226;-55
2020/12/27 05:57:15;;;;;;;63.13;28.97;;;;;;;;;;4374284;32;20225;-56
2020/12/27 05:59:43;;;;;;;44.67;23.90;;;;;;;;;;4374234;32;20361;-56
2020/12/27 06:02:42;;;;;;;38.30;21.07;;;;;;;;;;4374638;32;20206;-56
2020/12/27 06:05:15;;;;;;;26.63;15.67;;;;;;;;;;4374281;32;20294;-55
2020/12/27 06:07:44;;;;;;;28.30;15.80;;;;;;;;;;4360842;32;20309;-56
2020/12/27 06:10:09;;;;;;;27.87;16.00;;;;;;;;;;4374666;32;20234;-56
2020/12/27 06:12:46;;;;;;;19.60;12.07;;;;;;;;;;4360517;32;20222;-57
2020/12/27 06:15:22;;;;;;;13.93;9.90;;;;;;;;;;4374209;32;20218;-56
2020/12/27 06:18:02;;;;;;;20.90;11.53;;;;;;;;;;4374456;32;20227;-56
2020/12/27 06:20:36;;;;;;;17.13;11.67;;;;;;;;;;4374637;32;20249;-56
2020/12/27 06:23:02;;;;;;;18.50;12.17;;;;;;;;;;4374415;32;20256;-56
2020/12/27 06:25:28;;;;;;;18.63;11.97;;;;;;;;;;4374404;32;20361;-55
2020/12/27 06:27:58;;;;;;;11.83;9.10;;;;;;;;;;4374056;32;20236;-55
2020/12/27 06:30:29;;;;;;;13.67;10.37;;;;;;;;;;4360774;32;20368;-56
2020/12/27 06:33:06;;;;;;;20.27;13.10;;;;;;;;;;4373631;32;20323;-55
2020/12/27 06:35:34;;;;;;;17.27;12.47;;;;;;;;;;4360465;32;20229;-55
2020/12/27 06:38:12;;;;;;;36.83;24.13;;;;;;;;;;4360631;32;20201;-55
2020/12/27 06:40:39;;;;;;;32.20;19.97;;;;;;;;;;4373970;32;20268;-56
2020/12/27 06:43:16;;;;;;;28.93;20.57;;;;;;;;;;4373851;32;20231;-56
2020/12/27 06:45:42;;;;;;;28.67;19.30;;;;;;;;;;4374015;32;20210;-56
2020/12/27 06:48:08;;;;;;;32.13;19.73;;;;;;;;;;4373618;32;20288;-56
2020/12/27 06:50:46;;;;;;;36.63;21.83;;;;;;;;;;4373816;32;20258;-56
2020/12/27 06:53:32;;;;;;;26.20;19.10;;;;;;;;;;4360716;32;20218;-56
2020/12/27 06:56:04;;;;;;;25.77;17.53;;;;;;;;;;4374052;32;20352;-57
2020/12/27 06:58:29;;;;;;;29.70;19.93;;;;;;;;;;4373634;32;20241;-56
2020/12/27 07:01:15;;;;;;;31.93;20.20;;;;;;;;;;4373956;32;20344;-57
2020/12/27 07:03:43;;;;;;;38.97;22.47;;;;;;;;;;4373629;32;20248;-56
2020/12/27 07:06:38;;;;;;;42.50;24.53;;;;;;;;;;4373666;32;20261;-56
2020/12/27 07:09:03;;;;;;;33.37;23.77;;;;;;;;;;4372284;32;20643;-56
2020/12/27 07:11:32;;;;;;;37.90;27.93;;;;;;;;;;4373295;32;20342;-56
2020/12/27 07:13:58;;;;;;;40.23;30.13;;;;;;;;;;4372998;32;20698;-55
2020/12/27 07:16:43;;;;;;;41.97;31.40;;;;;;;;;;4373255;32;20210;-56
2020/12/27 07:19:13;;;;;;;40.43;30.20;;;;;;;;;;4359584;32;20259;-56
2020/12/27 07:21:39;;;;;;;42.77;27.23;;;;;;;;;;4373484;32;20198;-56
2020/12/27 07:24:07;;;;;;;34.80;25.33;;;;;;;;;;4373293;32;20627;-56
2020/12/27 07:26:35;;;;;;;34.87;22.93;;;;;;;;;;4373591;32;20261;-55
2020/12/27 07:29:05;;;;;;;27.97;17.13;;;;;;;;;;4372813;32;20255;-55
2020/12/27 07:31:34;;;;;;;27.87;18.07;;;;;;;;;;4373515;32;20190;-55
2020/12/27 07:34:00;;;;;;;32.90;21.40;;;;;;;;;;4373283;32;20226;-56
2020/12/27 07:36:26;;;;;;;36.13;23.73;;;;;;;;;;4373092;32;20327;-56
2020/12/27 07:38:52;;;;;;;34.13;23.17;;;;;;;;;;4359357;32;20245;-56
2020/12/27 07:41:21;;;;;;;43.70;29.47;;;;;;;;;;4373003;32;20328;-56
2020/12/27 07:43:47;;;;;;;36.73;24.87;;;;;;;;;;4372848;32;20344;-56
2020/12/27 07:46:17;;;;;;;53.10;34.40;;;;;;;;;;4359314;32;20297;-55
2020/12/27 07:48:43;;;;;;;52.60;35.00;;;;;;;;;;4359814;32;20250;-56
2020/12/27 07:51:23;;;;;;;64.10;39.97;;;;;;;;;;4359506;32;20281;-57
2020/12/27 07:53:50;;;;;;;98.17;63.47;;;;;;;;;;4373028;32;20218;-56
2020/12/27 07:56:18;;;;;;;112.20;68.83;;;;;;;;;;4372852;32;20261;-56
2020/12/27 07:59:04;;;;;;;172.57;107.27;;;;;;;;;;4372716;32;20655;-56
2020/12/27 08:01:34;;;;;;;142.10;89.07;;;;;;;;;;4372749;32;20222;-57
2020/12/27 08:04:01;;;;;;;109.30;71.37;;;;;;;;;;4372700;32;20349;-55
2020/12/27 08:06:29;;;;;;;131.53;83.67;;;;;;;;;;4372797;32;20281;-56
2020/12/27 08:09:01;;;;;;;125.70;86.50;;;;;;;;;;4372558;32;20616;-55
2020/12/27 08:11:27;;;;;;;138.97;88.43;;;;;;;;;;4372562;32;20636;-55
2020/12/27 08:14:01;;;;;;;106.87;69.00;;;;;;;;;;4372456;32;20410;-56
2020/12/27 08:16:27;;;;;;;118.03;75.27;;;;;;;;;;4372648;32;21145;-55
2020/12/27 08:19:20;;;;;;;89.80;57.50;;;;;;;;;;4358825;32;20303;-55
2020/12/27 08:21:46;;;;;;;76.43;49.47;;;;;;;;;;4370036;32;20551;-55
2020/12/27 08:24:14;;;;;;;63.43;43.10;;;;;;;;;;4372596;32;20303;-55
2020/12/27 08:26:42;;;;;;;64.93;45.17;;;;;;;;;;4359256;32;20210;-55
2020/12/27 08:29:23;;;;;;;84.07;56.63;;;;;;;;;;4358787;32;20301;-55
2020/12/27 08:32:04;;;;;;;86.03;59.93;;;;;;;;;;4372272;32;20331;-55
2020/12/27 08:34:30;;;;;;;96.50;64.30;;;;;;;;;;4359001;32;20241;-55
2020/12/27 08:36:57;;;;;;;98.23;66.10;;;;;;;;;;4372187;32;20764;-55
2020/12/27 08:39:36;;;;;;;111.77;71.50;;;;;;;;;;4372577;32;20644;-55
2020/12/27 08:42:23;;;;;;;101.30;69.97;;;;;;;;;;4358478;32;20299;-55
2020/12/27 08:45:08;;;;;;;98.10;67.23;;;;;;;;;;4372648;32;20237;-55
2020/12/27 08:47:33;;;;;;;110.97;72.93;;;;;;;;;;4372546;32;20259;-55
2020/12/27 08:50:23;;;;;;;101.00;65.53;;;;;;;;;;4372631;32;20238;-55
2020/12/27 08:52:51;;;;;;;118.40;75.20;;;;;;;;;;4372433;32;20238;-55
2020/12/27 08:55:25;;;;;;;114.53;74.40;;;;;;;;;;4372402;32;20312;-55
2020/12/27 08:57:52;;;;;;;109.97;76.17;;;;;;;;;;4371709;32;20332;-55
2020/12/27 09:00:19;;;;;;;117.73;72.17;;;;;;;;;;4358832;32;20314;-55
2020/12/27 09:02:56;;;;;;;109.80;67.33;;;;;;;;;;4372105;32;20384;-55
2020/12/27 09:05:28;;;;;;;102.77;64.77;;;;;;;;;;4372169;32;20685;-55
2020/12/27 09:07:54;;;;;;;97.07;63.13;;;;;;;;;;4372427;32;20332;-55
2020/12/27 09:10:28;;;;;;;87.23;61.03;;;;;;;;;;4358802;32;20237;-55
2020/12/27 09:13:00;;;;;;;84.30;57.67;;;;;;;;;;4372240;32;20187;-55
2020/12/27 09:15:30;;;;;;;89.20;60.07;;;;;;;;;;4372313;32;20230;-55
2020/12/27 09:17:57;;;;;;;79.43;55.10;;;;;;;;;;4355844;33;20800;-55
2020/12/27 09:20:24;;;;;;;145.53;86.53;;;;;;;;;;4357483;33;20238;-55
2020/12/27 09:22:50;;;;;;;209.33;121.63;;;;;;;;;;4357462;33;20237;-55
2020/12/27 09:25:18;;;;;;;149.17;92.30;;;;;;;;;;4357485;33;20223;-55
2020/12/27 09:27:45;;;;;;;111.87;73.30;;;;;;;;;;4356886;33;20273;-55
2020/12/27 09:30:14;;;;;;;108.53;71.63;;;;;;;;;;4357006;33;20305;-55
2020/12/27 09:32:39;;;;;;;140.00;94.77;;;;;;;;;;4356931;33;20581;-56
2020/12/27 09:35:05;;;;;;;140.47;93.93;;;;;;;;;;4357103;33;20246;-58
2020/12/27 09:37:34;;;;;;;126.40;83.53;;;;;;;;;;4357164;33;20256;-58
2020/12/27 09:40:01;;;;;;;88.10;54.73;;;;;;;;;;4357233;33;20234;-59
2020/12/27 09:42:29;;;;;;;68.63;47.87;;;;;;;;;;4356774;33;20723;-58
2020/12/27 09:44:56;;;;;;;60.17;42.23;;;;;;;;;;4356795;33;20214;-58
